Time,TemperatureF,DewpointF,PressureIn,WindDirection,WindDirectionDegrees,WindSpeedMPH,WindSpeedGustMPH,Humidity,HourlyPrecipIn,Conditions,Clouds,dailyrainin,SoftwareType,DateUTC
2013-09-23 00:08:00,67.8,50.0,29.80,North,0,0.0,0.0,53,0.00,,,0.00,WUHU216HW,2013-09-23 05:08:00,
2013-09-23 00:13:00,67.6,49.8,29.80,North,0,0.0,0.0,53,0.00,,,0.00,WUHU216HW,2013-09-23 05:13:00,
2013-09-23 00:18:00,67.6,49.8,29.80,North,0,0.0,0.0,53,0.00,,,0.00,WUHU216HW,2013-09-23 05:18:00,
2013-09-23 00:41:00,62.9,49.7,29.80,North,0,0.0,0.0,62,0.00,,,0.00,WUHU216HW,2013-09-23 05:41:00,
2013-09-23 00:51:00,61.5,49.2,29.80,North,0,0.0,0.0,64,0.00,,,0.00,WUHU216HW,2013-09-23 05:51:00,
2013-09-23 01:02:00,60.4,49.0,29.80,North,0,0.0,0.0,66,0.00,,,0.00,WUHU216HW,2013-09-23 06:02:00,
2013-09-23 02:00:00,57.3,48.7,29.80,North,0,0.0,0.0,73,0.00,,,0.00,WUHU216HW,2013-09-23 07:00:00,
2013-09-23 02:12:00,56.8,48.2,29.80,North,0,0.0,0.0,74,0.00,,,0.00,WUHU216HW,2013-09-23 07:12:00,
2013-09-23 02:34:00,55.9,48.0,29.79,North,0,0.0,0.0,75,0.00,,,0.00,WUHU216HW,2013-09-23 07:34:00,
2013-09-23 02:46:00,55.5,48.0,29.80,North,0,0.0,0.0,77,0.00,,,0.00,WUHU216HW,2013-09-23 07:46:00,
2013-09-23 03:02:00,55.0,48.2,29.80,North,0,0.0,0.0,78,0.00,,,0.00,WUHU216HW,2013-09-23 08:02:00,
2013-09-23 03:07:00,55.0,48.2,29.80,North,0,0.0,0.0,78,0.00,,,0.00,WUHU216HW,2013-09-23 08:07:00,
2013-09-23 04:03:00,53.7,48.1,29.78,North,0,0.0,0.0,81,0.00,,,0.00,WUHU216HW,2013-09-23 09:03:00,
2013-09-23 04:08:00,53.4,48.0,29.78,North,0,0.0,0.0,82,0.00,,,0.00,WUHU216HW,2013-09-23 09:08:00,
2013-09-23 04:13:00,53.4,48.0,29.78,North,0,0.0,0.0,82,0.00,,,0.00,WUHU216HW,2013-09-23 09:13:00,
2013-09-23 04:46:00,53.0,48.0,29.78,North,0,0.0,0.0,83,0.00,,,0.00,WUHU216HW,2013-09-23 09:46:00,
2013-09-23 04:56:00,52.8,47.8,29.79,North,0,0.0,0.0,83,0.00,,,0.00,WUHU216HW,2013-09-23 09:56:00,
2013-09-23 05:14:00,52.7,47.6,29.79,North,0,0.0,0.0,84,0.00,,,0.00,WUHU216HW,2013-09-23 10:14:00,
2013-09-23 05:19:00,52.7,47.6,29.79,North,0,0.0,0.0,84,0.00,,,0.00,WUHU216HW,2013-09-23 10:19:00,
2013-09-23 05:27:00,52.5,47.8,29.79,North,0,0.0,0.0,84,0.00,,,0.00,WUHU216HW,2013-09-23 10:27:00,
2013-09-23 05:38:00,52.5,47.8,29.79,North,0,0.0,0.0,85,0.00,,,0.00,WUHU216HW,2013-09-23 10:38:00,
2013-09-23 06:04:00,52.3,47.9,29.79,North,0,0.0,0.0,85,0.00,,,0.00,WUHU216HW,2013-09-23 11:04:00,
2013-09-23 06:15:00,52.1,48.0,29.79,North,0,0.0,0.0,86,0.00,,,0.00,WUHU216HW,2013-09-23 11:15:00,
2013-09-23 06:20:00,52.1,48.0,29.78,North,0,0.0,0.0,86,0.00,,,0.00,WUHU216HW,2013-09-23 11:20:00,
2013-09-23 06:25:00,52.1,48.0,29.78,North,0,0.0,0.0,86,0.00,,,0.00,WUHU216HW,2013-09-23 11:25:00,
2013-09-23 06:36:00,51.9,47.8,29.79,North,0,0.0,0.0,86,0.00,,,0.00,WUHU216HW,2013-09-23 11:36:00,
2013-09-23 06:50:00,51.9,47.8,29.79,North,0,0.0,0.0,86,0.00,,,0.00,WUHU216HW,2013-09-23 11:50:00,
2013-09-23 07:01:00,51.8,47.6,29.79,North,0,0.0,0.0,86,0.00,,,0.00,WUHU216HW,2013-09-23 12:01:00,
2013-09-23 07:06:00,51.8,47.6,29.79,North,0,0.0,0.0,86,0.00,,,0.00,WUHU216HW,2013-09-23 12:06:00,
2013-09-23 07:16:00,51.4,47.3,29.79,North,0,0.0,0.0,86,0.00,,,0.00,WUHU216HW,2013-09-23 12:16:00,
2013-09-23 07:20:00,51.4,47.3,29.80,North,0,0.0,0.0,86,0.00,,,0.00,WUHU216HW,2013-09-23 12:20:00,
2013-09-23 07:32:00,51.4,47.3,29.81,North,0,0.0,0.0,86,0.00,,,0.00,WUHU216HW,2013-09-23 12:32:00,
2013-09-23 07:44:00,51.4,47.3,29.81,North,0,0.0,0.0,87,0.00,,,0.00,WUHU216HW,2013-09-23 12:44:00,
2013-09-23 07:54:00,51.4,47.3,29.81,North,0,0.0,0.0,87,0.00,,,0.00,WUHU216HW,2013-09-23 12:54:00,
2013-09-23 08:05:00,52.1,48.3,29.81,North,0,0.0,0.0,87,0.00,,,0.00,WUHU216HW,2013-09-23 13:05:00,
2013-09-23 08:12:00,52.8,49.0,29.82,North,0,0.0,0.0,87,0.00,,,0.00,WUHU216HW,2013-09-23 13:12:00,
2013-09-23 08:26:00,54.3,50.5,29.82,North,0,0.0,0.0,87,0.00,,,0.00,WUHU216HW,2013-09-23 13:26:00,
2013-09-23 08:38:00,55.7,52.2,29.82,North,0,0.0,0.0,88,0.00,,,0.00,WUHU216HW,2013-09-23 13:38:00,
2013-09-23 08:58:00,59.0,54.5,29.82,North,0,0.0,0.0,85,0.00,,,0.00,WUHU216HW,2013-09-23 13:58:00,
2013-09-23 09:36:00,64.9,55.3,29.82,North,0,0.0,0.0,71,0.00,,,0.00,WUHU216HW,2013-09-23 14:36:00,
2013-09-23 09:51:00,68.3,55.2,29.83,North,0,0.0,0.0,63,0.00,,,0.00,WUHU216HW,2013-09-23 14:51:00,
2013-09-23 09:56:00,69.9,56.8,29.82,North,0,0.0,0.0,63,0.00,,,0.00,WUHU216HW,2013-09-23 14:56:00,
2013-09-23 10:01:00,69.9,56.8,29.82,North,0,0.0,0.0,63,0.00,,,0.00,WUHU216HW,2013-09-23 15:01:00,
2013-09-23 10:32:00,75.3,56.5,29.82,North,0,0.0,0.0,52,0.00,,,0.00,WUHU216HW,2013-09-23 15:32:00,
2013-09-23 10:46:00,78.4,58.3,29.82,North,0,0.0,0.0,50,0.00,,,0.00,WUHU216HW,2013-09-23 15:46:00,
2013-09-23 11:08:00,81.3,56.0,29.82,North,0,0.0,0.0,42,0.00,,,0.00,WUHU216HW,2013-09-23 16:08:00,
2013-09-23 11:20:00,82.0,55.4,29.82,North,0,0.0,0.0,40,0.00,,,0.00,WUHU216HW,2013-09-23 16:20:00,
2013-09-23 11:25:00,82.9,56.8,29.82,North,0,0.0,0.0,41,0.00,,,0.00,WUHU216HW,2013-09-23 16:25:00,
2013-09-23 11:30:00,82.9,56.8,29.82,North,0,0.0,0.0,41,0.00,,,0.00,WUHU216HW,2013-09-23 16:30:00,
2013-09-23 12:01:00,84.9,58.0,29.82,North,0,0.0,0.0,40,0.00,,,0.00,WUHU216HW,2013-09-23 17:01:00,
2013-09-23 12:25:00,85.1,56.6,29.82,North,0,0.0,0.0,37,0.00,,,0.00,WUHU216HW,2013-09-23 17:25:00,
2013-09-23 12:38:00,88.5,57.9,29.82,North,0,0.0,0.0,36,0.00,,,0.00,WUHU216HW,2013-09-23 17:38:00,
2013-09-23 12:48:00,89.7,57.4,29.81,North,0,0.0,0.0,35,0.00,,,0.00,WUHU216HW,2013-09-23 17:48:00,
2013-09-23 12:53:00,89.9,55.2,29.81,North,0,0.0,0.0,31,0.00,,,0.00,WUHU216HW,2013-09-23 17:53:00,
2013-09-23 12:58:00,89.9,55.2,29.81,North,0,0.0,0.0,31,0.00,,,0.00,WUHU216HW,2013-09-23 17:58:00,
2013-09-23 13:10:00,87.9,55.1,29.80,North,0,0.0,0.0,33,0.00,,,0.00,WUHU216HW,2013-09-23 18:10:00,
2013-09-23 13:32:00,89.2,55.4,29.79,North,0,0.0,0.0,32,0.00,,,0.00,WUHU216HW,2013-09-23 18:32:00,
2013-09-23 13:37:00,91.2,55.6,29.79,North,0,0.0,0.0,30,0.00,,,0.00,WUHU216HW,2013-09-23 18:37:00,
2013-09-23 13:42:00,91.2,55.6,29.79,North,0,0.0,0.0,30,0.00,,,0.00,WUHU216HW,2013-09-23 18:42:00,
2013-09-23 14:16:00,92.1,56.3,29.78,North,0,0.0,0.0,30,0.00,,,0.00,WUHU216HW,2013-09-23 19:16:00,
2013-09-23 14:31:00,93.0,57.0,29.77,North,0,0.0,0.0,30,0.00,,,0.00,WUHU216HW,2013-09-23 19:31:00,
2013-09-23 15:00:00,93.7,57.6,29.76,North,0,0.0,0.0,30,0.00,,,0.00,WUHU216HW,2013-09-23 20:00:00,
2013-09-23 15:12:00,94.1,54.6,29.77,North,0,0.0,0.0,27,0.00,,,0.00,WUHU216HW,2013-09-23 20:12:00,
2013-09-23 15:26:00,90.6,54.0,29.75,North,0,0.0,0.0,29,0.00,,,0.00,WUHU216HW,2013-09-23 20:26:00,
2013-09-23 15:31:00,92.1,57.1,29.75,North,0,0.0,0.0,31,0.00,,,0.00,WUHU216HW,2013-09-23 20:31:00,
2013-09-23 15:36:00,92.1,57.1,29.75,North,0,0.0,0.0,31,0.00,,,0.00,WUHU216HW,2013-09-23 20:36:00,
2013-09-23 15:49:00,94.2,58.1,29.74,North,0,0.0,0.0,30,0.00,,,0.00,WUHU216HW,2013-09-23 20:49:00,
2013-09-23 16:06:00,93.9,54.5,29.74,North,0,0.0,0.0,27,0.00,,,0.00,WUHU216HW,2013-09-23 21:06:00,
2013-09-23 16:11:00,93.9,56.7,29.74,North,0,0.0,0.0,29,0.00,,,0.00,WUHU216HW,2013-09-23 21:11:00,
2013-09-23 16:16:00,93.9,56.7,29.74,North,0,0.0,0.0,29,0.00,,,0.00,WUHU216HW,2013-09-23 21:16:00,
2013-09-23 16:24:00,93.7,57.6,29.74,North,0,0.0,0.0,30,0.00,,,0.00,WUHU216HW,2013-09-23 21:24:00,
2013-09-23 16:50:00,93.3,57.3,29.73,North,0,0.0,0.0,27,0.00,,,0.00,WUHU216HW,2013-09-23 21:50:00,
2013-09-23 16:55:00,92.6,56.7,29.73,North,0,0.0,0.0,30,0.00,,,0.00,WUHU216HW,2013-09-23 21:55:00,
2013-09-23 17:00:00,92.6,56.7,29.73,North,0,0.0,0.0,30,0.00,,,0.00,WUHU216HW,2013-09-23 22:00:00,
2013-09-23 17:12:00,91.5,53.7,29.73,North,0,0.0,0.0,28,0.00,,,0.00,WUHU216HW,2013-09-23 22:12:00,
2013-09-23 17:25:00,91.0,55.4,29.73,North,0,0.0,0.0,31,0.00,,,0.00,WUHU216HW,2013-09-23 22:25:00,
2013-09-23 17:47:00,90.1,56.2,29.74,North,0,0.0,0.0,32,0.00,,,0.00,WUHU216HW,2013-09-23 22:47:00,
2013-09-23 18:08:00,88.5,54.7,29.74,North,0,0.0,0.0,32,0.00,,,0.00,WUHU216HW,2013-09-23 23:08:00,
2013-09-23 18:20:00,87.4,54.6,29.74,North,0,0.0,0.0,33,0.00,,,0.00,WUHU216HW,2013-09-23 23:20:00,
2013-09-23 18:31:00,86.3,54.5,29.74,North,0,0.0,0.0,34,0.00,,,0.00,WUHU216HW,2013-09-23 23:31:00,
2013-09-23 19:06:00,82.2,53.2,29.75,North,0,0.0,0.0,37,0.00,,,0.00,WUHU216HW,2013-09-24 00:06:00,
2013-09-23 19:26:00,79.5,53.1,29.75,North,0,0.0,0.0,40,0.00,,,0.00,WUHU216HW,2013-09-24 00:26:00,
2013-09-23 19:31:00,78.4,53.4,29.75,North,0,0.0,0.0,42,0.00,,,0.00,WUHU216HW,2013-09-24 00:31:00,
2013-09-23 19:36:00,78.4,53.4,29.75,North,0,0.0,0.0,42,0.00,,,0.00,WUHU216HW,2013-09-24 00:36:00,
2013-09-23 19:55:00,76.2,52.0,29.76,North,0,0.0,0.0,43,0.00,,,0.00,WUHU216HW,2013-09-24 00:55:00,
2013-09-23 20:14:00,75.7,51.6,29.76,North,0,0.0,0.0,43,0.00,,,0.00,WUHU216HW,2013-09-24 01:14:00,
2013-09-23 21:03:00,73.9,51.7,29.78,North,0,0.0,0.0,46,0.00,,,0.00,WUHU216HW,2013-09-24 02:03:00,
2013-09-23 21:14:00,73.7,51.5,29.79,North,0,0.0,0.0,46,0.00,,,0.00,WUHU216HW,2013-09-24 02:14:00,
2013-09-23 21:46:00,70.8,51.8,29.79,North,0,0.0,0.0,51,0.00,,,0.00,WUHU216HW,2013-09-24 02:46:00,
2013-09-23 22:17:00,70.5,52.5,29.80,North,0,0.0,0.0,54,0.00,,,0.00,WUHU216HW,2013-09-24 03:17:00,
2013-09-23 22:22:00,70.5,52.5,29.80,North,0,0.0,0.0,54,0.00,,,0.00,WUHU216HW,2013-09-24 03:22:00,
2013-09-23 22:29:00,70.1,52.7,29.80,North,0,0.0,0.0,55,0.00,,,0.00,WUHU216HW,2013-09-24 03:29:00,
2013-09-23 22:41:00,70.1,52.7,29.80,North,0,0.0,0.0,55,0.00,,,0.00,WUHU216HW,2013-09-24 03:41:00,
2013-09-23 23:04:00,69.6,53.7,29.81,North,0,0.0,0.0,57,0.00,,,0.00,WUHU216HW,2013-09-24 04:04:00,
2013-09-23 23:16:00,69.4,53.5,29.81,North,0,0.0,0.0,57,0.00,,,0.00,WUHU216HW,2013-09-24 04:16:00,
2013-09-23 23:46:00,68.7,53.3,29.82,North,0,0.0,0.0,58,0.00,,,0.00,WUHU216HW,2013-09-24 04:46:00,